sensor_id;sensor_type;location;lat;lon;timestamp;temperature;humidity
21184;DHT22;18176;49.502;11.754;2023-07-31T00:01:36;14.00;99.90
21184;DHT22;18176;49.502;11.754;2023-07-31T00:05:37;14.00;99.90
21184;DHT22;18176;49.502;11.754;2023-07-31T00:09:37;13.90;99.90
21184;DHT22;18176;49.502;11.754;2023-07-31T00:13:40;13.80;99.90
21184;DHT22;18176;49.502;11.754;2023-07-31T00:17:40;13.70;99.90
21184;DHT22;18176;49.502;11.754;2023-07-31T00:21:40;13.60;99.90
21184;DHT22;18176;49.502;11.754;2023-07-31T00:25:42;13.60;99.90
21184;DHT22;18176;49.502;11.754;2023-07-31T00:29:45;13.50;99.90
21184;DHT22;18176;49.502;11.754;2023-07-31T00:33:45;13.50;99.90
21184;DHT22;18176;49.502;11.754;2023-07-31T00:37:45;13.50;99.90
21184;DHT22;18176;49.502;11.754;2023-07-31T00:41:45;13.50;99.90
21184;DHT22;18176;49.502;11.754;2023-07-31T00:45:49;13.50;99.90
21184;DHT22;18176;49.502;11.754;2023-07-31T00:49:50;13.50;99.90
21184;DHT22;18176;49.502;11.754;2023-07-31T00:53:51;13.50;99.90
21184;DHT22;18176;49.502;11.754;2023-07-31T00:57:53;13.50;99.90
21184;DHT22;18176;49.502;11.754;2023-07-31T01:01:56;13.50;99.90
21184;DHT22;18176;49.502;11.754;2023-07-31T01:06:13;13.40;99.90
21184;DHT22;18176;49.502;11.754;2023-07-31T01:10:21;13.40;99.90
21184;DHT22;18176;49.502;11.754;2023-07-31T01:14:25;13.50;99.90
21184;DHT22;18176;49.502;11.754;2023-07-31T01:18:28;13.50;99.90
21184;DHT22;18176;49.502;11.754;2023-07-31T01:22:51;13.50;99.90
21184;DHT22;18176;49.502;11.754;2023-07-31T01:27:13;13.60;99.90
21184;DHT22;18176;49.502;11.754;2023-07-31T01:31:20;13.70;99.90
21184;DHT22;18176;49.502;11.754;2023-07-31T01:35:25;13.70;99.90
21184;DHT22;18176;49.502;11.754;2023-07-31T01:39:25;13.80;99.90
21184;DHT22;18176;49.502;11.754;2023-07-31T01:43:29;13.80;99.90
21184;DHT22;18176;49.502;11.754;2023-07-31T01:47:29;13.80;99.90
21184;DHT22;18176;49.502;11.754;2023-07-31T01:51:29;13.80;99.90
21184;DHT22;18176;49.502;11.754;2023-07-31T01:55:31;13.90;99.90
21184;DHT22;18176;49.502;11.754;2023-07-31T01:59:34;13.90;99.90
21184;DHT22;18176;49.502;11.754;2023-07-31T02:03:34;13.90;99.90
21184;DHT22;18176;49.502;11.754;2023-07-31T02:07:35;13.90;99.90
21184;DHT22;18176;49.502;11.754;2023-07-31T02:11:35;13.90;99.90
21184;DHT22;18176;49.502;11.754;2023-07-31T02:15:38;13.90;99.90
21184;DHT22;18176;49.502;11.754;2023-07-31T02:19:39;13.90;99.90
21184;DHT22;18176;49.502;11.754;2023-07-31T02:23:39;13.90;99.90
21184;DHT22;18176;49.502;11.754;2023-07-31T02:27:40;13.90;99.90
21184;DHT22;18176;49.502;11.754;2023-07-31T02:31:43;13.90;99.90
21184;DHT22;18176;49.502;11.754;2023-07-31T02:35:44;13.90;99.90
21184;DHT22;18176;49.502;11.754;2023-07-31T02:39:44;13.90;99.90
21184;DHT22;18176;49.502;11.754;2023-07-31T02:43:44;13.90;99.90
21184;DHT22;18176;49.502;11.754;2023-07-31T02:47:48;13.90;99.90
21184;DHT22;18176;49.502;11.754;2023-07-31T02:51:50;14.00;99.90
21184;DHT22;18176;49.502;11.754;2023-07-31T02:55:50;14.00;99.90
21184;DHT22;18176;49.502;11.754;2023-07-31T02:59:51;14.10;99.90
21184;DHT22;18176;49.502;11.754;2023-07-31T03:03:54;14.10;99.90
21184;DHT22;18176;49.502;11.754;2023-07-31T03:07:55;14.10;99.90
21184;DHT22;18176;49.502;11.754;2023-07-31T03:11:55;14.20;99.90
21184;DHT22;18176;49.502;11.754;2023-07-31T03:15:56;14.20;99.90
21184;DHT22;18176;49.502;11.754;2023-07-31T03:19:59;14.30;99.90
21184;DHT22;18176;49.502;11.754;2023-07-31T03:23:59;14.30;99.90
21184;DHT22;18176;49.502;11.754;2023-07-31T03:27:59;14.40;99.90
21184;DHT22;18176;49.502;11.754;2023-07-31T03:32:00;14.50;99.90
21184;DHT22;18176;49.502;11.754;2023-07-31T03:36:04;14.50;99.90
21184;DHT22;18176;49.502;11.754;2023-07-31T03:40:07;14.50;99.90
21184;DHT22;18176;49.502;11.754;2023-07-31T03:44:08;14.50;99.90
21184;DHT22;18176;49.502;11.754;2023-07-31T03:48:08;14.60;99.90
21184;DHT22;18176;49.502;11.754;2023-07-31T03:52:11;14.60;99.90
21184;DHT22;18176;49.502;11.754;2023-07-31T03:56:11;14.60;99.90
21184;DHT22;18176;49.502;11.754;2023-07-31T04:00:12;14.50;99.90
21184;DHT22;18176;49.502;11.754;2023-07-31T04:04:13;14.60;99.90
21184;DHT22;18176;49.502;11.754;2023-07-31T04:08:16;14.60;99.90
21184;DHT22;18176;49.502;11.754;2023-07-31T04:12:16;14.50;99.90
21184;DHT22;18176;49.502;11.754;2023-07-31T04:16:17;14.60;99.90
21184;DHT22;18176;49.502;11.754;2023-07-31T04:20:17;14.60;99.90
21184;DHT22;18176;49.502;11.754;2023-07-31T04:24:20;14.60;99.90
21184;DHT22;18176;49.502;11.754;2023-07-31T04:28:22;14.60;99.90
21184;DHT22;18176;49.502;11.754;2023-07-31T04:32:23;14.70;99.90
21184;DHT22;18176;49.502;11.754;2023-07-31T04:36:23;14.70;99.90
21184;DHT22;18176;49.502;11.754;2023-07-31T04:40:27;14.80;99.90
21184;DHT22;18176;49.502;11.754;2023-07-31T04:44:27;14.90;99.90
21184;DHT22;18176;49.502;11.754;2023-07-31T04:48:27;14.90;99.90
21184;DHT22;18176;49.502;11.754;2023-07-31T04:52:27;15.00;99.90
21184;DHT22;18176;49.502;11.754;2023-07-31T04:56:30;15.10;99.90
21184;DHT22;18176;49.502;11.754;2023-07-31T05:00:31;15.30;99.90
21184;DHT22;18176;49.502;11.754;2023-07-31T05:04:31;15.40;99.90
21184;DHT22;18176;49.502;11.754;2023-07-31T05:08:32;15.50;99.90
21184;DHT22;18176;49.502;11.754;2023-07-31T05:12:35;15.70;99.90
21184;DHT22;18176;49.502;11.754;2023-07-31T05:16:35;15.80;99.90
21184;DHT22;18176;49.502;11.754;2023-07-31T05:20:36;15.90;99.90
21184;DHT22;18176;49.502;11.754;2023-07-31T05:24:36;15.90;99.90
21184;DHT22;18176;49.502;11.754;2023-07-31T05:28:39;15.90;99.90
21184;DHT22;18176;49.502;11.754;2023-07-31T05:32:40;15.90;99.90
21184;DHT22;18176;49.502;11.754;2023-07-31T05:36:40;16.00;99.90
21184;DHT22;18176;49.502;11.754;2023-07-31T05:40:40;16.10;99.90
21184;DHT22;18176;49.502;11.754;2023-07-31T05:44:45;16.30;99.90
21184;DHT22;18176;49.502;11.754;2023-07-31T05:48:45;16.50;99.90
21184;DHT22;18176;49.502;11.754;2023-07-31T05:52:45;16.80;99.90
21184;DHT22;18176;49.502;11.754;2023-07-31T05:56:46;17.20;99.90
21184;DHT22;18176;49.502;11.754;2023-07-31T06:00:48;17.40;99.90
21184;DHT22;18176;49.502;11.754;2023-07-31T06:04:49;17.50;99.90
21184;DHT22;18176;49.502;11.754;2023-07-31T06:08:49;17.50;99.90
21184;DHT22;18176;49.502;11.754;2023-07-31T06:12:50;17.80;99.90
21184;DHT22;18176;49.502;11.754;2023-07-31T06:16:53;17.90;99.90
21184;DHT22;18176;49.502;11.754;2023-07-31T06:20:54;18.10;99.90
21184;DHT22;18176;49.502;11.754;2023-07-31T06:24:54;18.20;99.90
21184;DHT22;18176;49.502;11.754;2023-07-31T06:28:55;18.30;99.90
21184;DHT22;18176;49.502;11.754;2023-07-31T06:32:58;18.30;99.90
21184;DHT22;18176;49.502;11.754;2023-07-31T06:36:58;18.30;99.90
21184;DHT22;18176;49.502;11.754;2023-07-31T06:40:58;18.50;99.90
21184;DHT22;18176;49.502;11.754;2023-07-31T06:44:59;18.50;99.90
21184;DHT22;18176;49.502;11.754;2023-07-31T06:49:02;18.60;99.90
21184;DHT22;18176;49.502;11.754;2023-07-31T06:53:02;18.40;99.90
21184;DHT22;18176;49.502;11.754;2023-07-31T06:57:10;18.30;99.90
21184;DHT22;18176;49.502;11.754;2023-07-31T07:01:11;18.20;99.90
21184;DHT22;18176;49.502;11.754;2023-07-31T07:05:14;18.40;99.90
21184;DHT22;18176;49.502;11.754;2023-07-31T07:09:17;18.60;99.90
21184;DHT22;18176;49.502;11.754;2023-07-31T07:13:17;18.70;99.90
21184;DHT22;18176;49.502;11.754;2023-07-31T07:17:18;19.00;99.90
21184;DHT22;18176;49.502;11.754;2023-07-31T07:21:24;19.00;99.90
21184;DHT22;18176;49.502;11.754;2023-07-31T07:25:25;18.90;99.90
21184;DHT22;18176;49.502;11.754;2023-07-31T07:29:26;18.90;99.90
21184;DHT22;18176;49.502;11.754;2023-07-31T07:33:26;19.10;99.90
21184;DHT22;18176;49.502;11.754;2023-07-31T07:37:29;19.10;99.90
21184;DHT22;18176;49.502;11.754;2023-07-31T07:41:30;19.20;99.90
21184;DHT22;18176;49.502;11.754;2023-07-31T07:45:30;19.40;99.90
21184;DHT22;18176;49.502;11.754;2023-07-31T07:49:30;19.50;99.90
21184;DHT22;18176;49.502;11.754;2023-07-31T07:53:33;19.30;99.90
21184;DHT22;18176;49.502;11.754;2023-07-31T07:57:34;19.30;99.90
21184;DHT22;18176;49.502;11.754;2023-07-31T08:01:34;19.30;99.90
21184;DHT22;18176;49.502;11.754;2023-07-31T08:05:35;19.10;99.90
21184;DHT22;18176;49.502;11.754;2023-07-31T08:09:42;19.20;99.90
21184;DHT22;18176;49.502;11.754;2023-07-31T08:13:42;19.70;99.90
21184;DHT22;18176;49.502;11.754;2023-07-31T08:17:43;19.60;99.90
21184;DHT22;18176;49.502;11.754;2023-07-31T08:21:43;19.80;99.90
21184;DHT22;18176;49.502;11.754;2023-07-31T08:25:46;20.10;99.90
21184;DHT22;18176;49.502;11.754;2023-07-31T08:29:47;20.50;99.90
21184;DHT22;18176;49.502;11.754;2023-07-31T08:33:49;20.80;99.90
21184;DHT22;18176;49.502;11.754;2023-07-31T08:37:49;20.50;99.90
21184;DHT22;18176;49.502;11.754;2023-07-31T08:41:58;20.50;99.90
21184;DHT22;18176;49.502;11.754;2023-07-31T08:45:59;20.60;99.90
21184;DHT22;18176;49.502;11.754;2023-07-31T08:50:00;20.70;99.90
21184;DHT22;18176;49.502;11.754;2023-07-31T08:54:02;21.50;99.90
21184;DHT22;18176;49.502;11.754;2023-07-31T08:58:06;22.20;99.90
21184;DHT22;18176;49.502;11.754;2023-07-31T09:02:08;22.30;99.90
21184;DHT22;18176;49.502;11.754;2023-07-31T09:06:09;22.30;99.90
21184;DHT22;18176;49.502;11.754;2023-07-31T09:10:10;22.30;99.90
21184;DHT22;18176;49.502;11.754;2023-07-31T09:14:14;22.10;99.90
21184;DHT22;18176;49.502;11.754;2023-07-31T09:18:16;22.20;99.90
21184;DHT22;18176;49.502;11.754;2023-07-31T09:22:31;22.10;99.90
21184;DHT22;18176;49.502;11.754;2023-07-31T09:26:35;22.40;99.90
21184;DHT22;18176;49.502;11.754;2023-07-31T09:30:48;22.80;99.90
21184;DHT22;18176;49.502;11.754;2023-07-31T09:34:49;24.40;99.90
21184;DHT22;18176;49.502;11.754;2023-07-31T09:38:50;24.50;99.90
21184;DHT22;18176;49.502;11.754;2023-07-31T09:42:50;23.90;99.90
21184;DHT22;18176;49.502;11.754;2023-07-31T09:46:54;23.60;99.90
21184;DHT22;18176;49.502;11.754;2023-07-31T09:50:54;23.10;99.90
21184;DHT22;18176;49.502;11.754;2023-07-31T09:54:55;22.70;99.90
21184;DHT22;18176;49.502;11.754;2023-07-31T09:58:56;22.60;99.90
21184;DHT22;18176;49.502;11.754;2023-07-31T10:03:00;23.40;99.90
21184;DHT22;18176;49.502;11.754;2023-07-31T10:07:06;23.60;99.90
21184;DHT22;18176;49.502;11.754;2023-07-31T10:11:10;23.10;99.90
21184;DHT22;18176;49.502;11.754;2023-07-31T10:15:11;23.20;99.90
21184;DHT22;18176;49.502;11.754;2023-07-31T10:19:14;23.40;99.90
21184;DHT22;18176;49.502;11.754;2023-07-31T10:23:15;23.30;99.90
21184;DHT22;18176;49.502;11.754;2023-07-31T10:27:16;24.10;99.90
21184;DHT22;18176;49.502;11.754;2023-07-31T10:31:19;24.00;99.90
21184;DHT22;18176;49.502;11.754;2023-07-31T10:35:22;24.00;99.90
21184;DHT22;18176;49.502;11.754;2023-07-31T10:39:35;23.50;99.90
21184;DHT22;18176;49.502;11.754;2023-07-31T10:43:41;23.00;99.90
21184;DHT22;18176;49.502;11.754;2023-07-31T10:47:43;22.50;99.90
21184;DHT22;18176;49.502;11.754;2023-07-31T10:51:48;22.20;99.90
21184;DHT22;18176;49.502;11.754;2023-07-31T10:55:49;22.00;99.90
21184;DHT22;18176;49.502;11.754;2023-07-31T11:00:18;22.30;99.90
21184;DHT22;18176;49.502;11.754;2023-07-31T11:04:23;22.40;99.90
21184;DHT22;18176;49.502;11.754;2023-07-31T11:08:28;22.50;99.90
21184;DHT22;18176;49.502;11.754;2023-07-31T11:12:30;22.80;99.90
21184;DHT22;18176;49.502;11.754;2023-07-31T11:16:31;22.50;99.90
21184;DHT22;18176;49.502;11.754;2023-07-31T11:20:35;22.60;99.90
21184;DHT22;18176;49.502;11.754;2023-07-31T11:24:39;22.70;99.90
21184;DHT22;18176;49.502;11.754;2023-07-31T11:28:40;23.10;99.90
21184;DHT22;18176;49.502;11.754;2023-07-31T11:32:41;23.10;99.90
21184;DHT22;18176;49.502;11.754;2023-07-31T11:36:55;22.90;99.90
21184;DHT22;18176;49.502;11.754;2023-07-31T11:41:01;23.00;99.90
21184;DHT22;18176;49.502;11.754;2023-07-31T11:45:09;23.50;99.90
21184;DHT22;18176;49.502;11.754;2023-07-31T11:49:10;24.10;99.90
21184;DHT22;18176;49.502;11.754;2023-07-31T11:53:11;24.00;99.90
21184;DHT22;18176;49.502;11.754;2023-07-31T11:57:14;23.80;99.90
21184;DHT22;18176;49.502;11.754;2023-07-31T12:01:16;24.00;99.90
21184;DHT22;18176;49.502;11.754;2023-07-31T12:05:18;23.70;99.90
21184;DHT22;18176;49.502;11.754;2023-07-31T12:09:19;23.70;99.90
21184;DHT22;18176;49.502;11.754;2023-07-31T12:13:24;23.70;99.90
21184;DHT22;18176;49.502;11.754;2023-07-31T12:17:26;23.80;99.90
21184;DHT22;18176;49.502;11.754;2023-07-31T12:21:28;23.90;99.90
21184;DHT22;18176;49.502;11.754;2023-07-31T12:25:32;24.30;99.90
21184;DHT22;18176;49.502;11.754;2023-07-31T12:29:41;24.70;99.90
21184;DHT22;18176;49.502;11.754;2023-07-31T12:33:44;24.40;99.90
21184;DHT22;18176;49.502;11.754;2023-07-31T12:37:49;24.40;99.90
21184;DHT22;18176;49.502;11.754;2023-07-31T12:41:50;24.40;99.90
21184;DHT22;18176;49.502;11.754;2023-07-31T12:45:54;24.10;99.90
21184;DHT22;18176;49.502;11.754;2023-07-31T12:49:55;23.70;99.90
21184;DHT22;18176;49.502;11.754;2023-07-31T12:53:55;23.50;99.90
21184;DHT22;18176;49.502;11.754;2023-07-31T12:57:56;23.60;99.90
21184;DHT22;18176;49.502;11.754;2023-07-31T13:01:59;23.80;99.90
21184;DHT22;18176;49.502;11.754;2023-07-31T13:05:59;24.20;99.90
21184;DHT22;18176;49.502;11.754;2023-07-31T13:10:00;24.10;99.90
21184;DHT22;18176;49.502;11.754;2023-07-31T13:14:00;24.10;99.90
21184;DHT22;18176;49.502;11.754;2023-07-31T13:18:03;24.60;99.90
21184;DHT22;18176;49.502;11.754;2023-07-31T13:22:04;24.40;99.90
21184;DHT22;18176;49.502;11.754;2023-07-31T13:26:04;24.10;99.90
21184;DHT22;18176;49.502;11.754;2023-07-31T13:30:10;24.40;99.90
21184;DHT22;18176;49.502;11.754;2023-07-31T13:34:13;25.10;99.90
21184;DHT22;18176;49.502;11.754;2023-07-31T13:38:16;25.90;99.70
21184;DHT22;18176;49.502;11.754;2023-07-31T13:42:16;26.00;99.10
21184;DHT22;18176;49.502;11.754;2023-07-31T13:46:17;26.70;97.70
21184;DHT22;18176;49.502;11.754;2023-07-31T13:50:20;26.70;97.60
21184;DHT22;18176;49.502;11.754;2023-07-31T13:54:22;25.70;98.00
21184;DHT22;18176;49.502;11.754;2023-07-31T13:58:27;25.30;98.50
21184;DHT22;18176;49.502;11.754;2023-07-31T14:02:27;24.90;99.70
21184;DHT22;18176;49.502;11.754;2023-07-31T14:06:30;25.50;99.20
21184;DHT22;18176;49.502;11.754;2023-07-31T14:10:30;26.00;99.10
21184;DHT22;18176;49.502;11.754;2023-07-31T14:14:32;25.80;97.60
21184;DHT22;18176;49.502;11.754;2023-07-31T14:18:33;25.50;98.50
21184;DHT22;18176;49.502;11.754;2023-07-31T14:22:37;25.50;98.40
21184;DHT22;18176;49.502;11.754;2023-07-31T14:26:37;25.20;98.20
21184;DHT22;18176;49.502;11.754;2023-07-31T14:30:38;24.80;99.30
21184;DHT22;18176;49.502;11.754;2023-07-31T14:34:39;24.50;99.90
21184;DHT22;18176;49.502;11.754;2023-07-31T14:38:42;25.40;99.20
21184;DHT22;18176;49.502;11.754;2023-07-31T14:42:42;26.10;98.00
21184;DHT22;18176;49.502;11.754;2023-07-31T14:46:43;26.00;97.60
21184;DHT22;18176;49.502;11.754;2023-07-31T14:50:44;25.10;97.50
21184;DHT22;18176;49.502;11.754;2023-07-31T14:54:47;24.80;98.60
21184;DHT22;18176;49.502;11.754;2023-07-31T14:58:47;24.50;99.80
21184;DHT22;18176;49.502;11.754;2023-07-31T15:02:47;24.80;99.80
21184;DHT22;18176;49.502;11.754;2023-07-31T15:06:48;24.50;99.20
21184;DHT22;18176;49.502;11.754;2023-07-31T15:10:54;24.60;99.30
21184;DHT22;18176;49.502;11.754;2023-07-31T15:14:55;24.50;99.40
21184;DHT22;18176;49.502;11.754;2023-07-31T15:18:56;24.40;99.80
21184;DHT22;18176;49.502;11.754;2023-07-31T15:22:56;24.20;99.70
21184;DHT22;18176;49.502;11.754;2023-07-31T15:26:59;23.70;99.90
21184;DHT22;18176;49.502;11.754;2023-07-31T15:31:00;23.70;99.90
21184;DHT22;18176;49.502;11.754;2023-07-31T15:35:00;23.50;99.90
21184;DHT22;18176;49.502;11.754;2023-07-31T15:39:01;23.90;99.90
21184;DHT22;18176;49.502;11.754;2023-07-31T15:43:04;24.40;99.90
21184;DHT22;18176;49.502;11.754;2023-07-31T15:47:04;24.50;99.90
21184;DHT22;18176;49.502;11.754;2023-07-31T15:51:05;24.40;99.90
21184;DHT22;18176;49.502;11.754;2023-07-31T15:55:06;24.10;99.50
21184;DHT22;18176;49.502;11.754;2023-07-31T15:59:10;23.70;99.90
21184;DHT22;18176;49.502;11.754;2023-07-31T16:03:10;23.70;99.90
21184;DHT22;18176;49.502;11.754;2023-07-31T16:07:10;23.70;99.90
21184;DHT22;18176;49.502;11.754;2023-07-31T16:11:12;23.60;99.90
21184;DHT22;18176;49.502;11.754;2023-07-31T16:15:14;23.70;99.90
21184;DHT22;18176;49.502;11.754;2023-07-31T16:19:15;23.50;99.90
21184;DHT22;18176;49.502;11.754;2023-07-31T16:23:16;23.50;99.90
21184;DHT22;18176;49.502;11.754;2023-07-31T16:27:16;23.50;99.90
21184;DHT22;18176;49.502;11.754;2023-07-31T16:31:23;23.40;99.90
21184;DHT22;18176;49.502;11.754;2023-07-31T16:35:30;23.40;99.90
21184;DHT22;18176;49.502;11.754;2023-07-31T16:39:31;23.70;99.90
21184;DHT22;18176;49.502;11.754;2023-07-31T16:43:33;23.90;99.90
21184;DHT22;18176;49.502;11.754;2023-07-31T16:47:36;24.50;99.10
21184;DHT22;18176;49.502;11.754;2023-07-31T16:51:36;25.50;97.70
21184;DHT22;18176;49.502;11.754;2023-07-31T16:55:37;26.20;96.70
21184;DHT22;18176;49.502;11.754;2023-07-31T16:59:37;26.30;96.60
21184;DHT22;18176;49.502;11.754;2023-07-31T17:03:40;26.30;96.60
21184;DHT22;18176;49.502;11.754;2023-07-31T17:07:41;25.90;96.30
21184;DHT22;18176;49.502;11.754;2023-07-31T17:11:41;25.60;96.60
21184;DHT22;18176;49.502;11.754;2023-07-31T17:15:42;24.80;97.50
21184;DHT22;18176;49.502;11.754;2023-07-31T17:19:45;24.20;98.90
21184;DHT22;18176;49.502;11.754;2023-07-31T17:23:45;23.80;99.30
21184;DHT22;18176;49.502;11.754;2023-07-31T17:27:46;23.40;99.90
21184;DHT22;18176;49.502;11.754;2023-07-31T17:31:49;23.00;99.90
21184;DHT22;18176;49.502;11.754;2023-07-31T17:35:53;22.60;99.90
21184;DHT22;18176;49.502;11.754;2023-07-31T17:39:53;22.50;99.90
21184;DHT22;18176;49.502;11.754;2023-07-31T17:43:53;22.60;99.90
21184;DHT22;18176;49.502;11.754;2023-07-31T17:47:54;22.60;99.90
21184;DHT22;18176;49.502;11.754;2023-07-31T17:51:57;22.50;99.90
21184;DHT22;18176;49.502;11.754;2023-07-31T17:55:58;22.20;99.90
21184;DHT22;18176;49.502;11.754;2023-07-31T17:59:58;22.00;99.90
21184;DHT22;18176;49.502;11.754;2023-07-31T18:04:02;21.80;99.90
21184;DHT22;18176;49.502;11.754;2023-07-31T18:08:06;21.60;99.90
21184;DHT22;18176;49.502;11.754;2023-07-31T18:12:07;21.50;99.90
21184;DHT22;18176;49.502;11.754;2023-07-31T18:16:08;21.50;99.90
21184;DHT22;18176;49.502;11.754;2023-07-31T18:20:09;21.40;99.90
21184;DHT22;18176;49.502;11.754;2023-07-31T18:24:16;21.30;99.90
21184;DHT22;18176;49.502;11.754;2023-07-31T18:28:16;21.20;99.90
21184;DHT22;18176;49.502;11.754;2023-07-31T18:32:16;21.20;99.90
21184;DHT22;18176;49.502;11.754;2023-07-31T18:36:17;21.10;99.90
21184;DHT22;18176;49.502;11.754;2023-07-31T18:40:20;21.00;99.90
21184;DHT22;18176;49.502;11.754;2023-07-31T18:44:20;21.00;99.90
21184;DHT22;18176;49.502;11.754;2023-07-31T18:48:22;21.00;99.90
21184;DHT22;18176;49.502;11.754;2023-07-31T18:52:23;20.90;99.90
21184;DHT22;18176;49.502;11.754;2023-07-31T18:56:26;20.90;99.90
21184;DHT22;18176;49.502;11.754;2023-07-31T19:00:26;20.90;99.90
21184;DHT22;18176;49.502;11.754;2023-07-31T19:04:26;20.80;99.90
21184;DHT22;18176;49.502;11.754;2023-07-31T19:08:27;20.80;99.90
21184;DHT22;18176;49.502;11.754;2023-07-31T19:12:30;20.70;99.90
21184;DHT22;18176;49.502;11.754;2023-07-31T19:16:30;20.70;99.90
21184;DHT22;18176;49.502;11.754;2023-07-31T19:20:31;20.60;99.90
21184;DHT22;18176;49.502;11.754;2023-07-31T19:24:32;20.60;99.90
21184;DHT22;18176;49.502;11.754;2023-07-31T19:28:36;20.60;99.90
21184;DHT22;18176;49.502;11.754;2023-07-31T19:32:47;20.50;99.90
21184;DHT22;18176;49.502;11.754;2023-07-31T19:36:48;20.40;99.90
21184;DHT22;18176;49.502;11.754;2023-07-31T19:40:52;20.40;99.90
21184;DHT22;18176;49.502;11.754;2023-07-31T19:44:55;20.30;99.90
21184;DHT22;18176;49.502;11.754;2023-07-31T19:48:56;20.20;99.90
21184;DHT22;18176;49.502;11.754;2023-07-31T19:52:57;20.20;99.90
21184;DHT22;18176;49.502;11.754;2023-07-31T19:56:57;20.10;99.90
21184;DHT22;18176;49.502;11.754;2023-07-31T20:01:03;20.00;99.90
21184;DHT22;18176;49.502;11.754;2023-07-31T20:05:05;20.00;99.90
21184;DHT22;18176;49.502;11.754;2023-07-31T20:09:07;20.00;99.90
21184;DHT22;18176;49.502;11.754;2023-07-31T20:13:10;20.00;99.90
21184;DHT22;18176;49.502;11.754;2023-07-31T20:17:14;20.00;99.90
21184;DHT22;18176;49.502;11.754;2023-07-31T20:21:15;19.90;99.90
21184;DHT22;18176;49.502;11.754;2023-07-31T20:25:16;19.90;99.90
21184;DHT22;18176;49.502;11.754;2023-07-31T20:29:17;19.90;99.90
21184;DHT22;18176;49.502;11.754;2023-07-31T20:33:20;19.80;99.90
21184;DHT22;18176;49.502;11.754;2023-07-31T20:37:21;19.50;99.90
21184;DHT22;18176;49.502;11.754;2023-07-31T20:41:22;19.20;99.90
21184;DHT22;18176;49.502;11.754;2023-07-31T20:45:25;18.80;99.90
21184;DHT22;18176;49.502;11.754;2023-07-31T20:49:31;18.50;99.90
21184;DHT22;18176;49.502;11.754;2023-07-31T20:53:32;18.30;99.90
21184;DHT22;18176;49.502;11.754;2023-07-31T20:57:33;18.20;99.90
21184;DHT22;18176;49.502;11.754;2023-07-31T21:01:33;18.10;99.90
21184;DHT22;18176;49.502;11.754;2023-07-31T21:05:37;18.00;99.90
21184;DHT22;18176;49.502;11.754;2023-07-31T21:09:37;17.80;99.90
21184;DHT22;18176;49.502;11.754;2023-07-31T21:13:41;17.60;99.90
21184;DHT22;18176;49.502;11.754;2023-07-31T21:17:44;17.40;99.90
21184;DHT22;18176;49.502;11.754;2023-07-31T21:21:48;17.30;99.90
21184;DHT22;18176;49.502;11.754;2023-07-31T21:25:49;17.20;99.90
21184;DHT22;18176;49.502;11.754;2023-07-31T21:29:50;17.20;99.90
21184;DHT22;18176;49.502;11.754;2023-07-31T21:33:51;17.10;99.90
21184;DHT22;18176;49.502;11.754;2023-07-31T21:38:00;17.10;99.90
21184;DHT22;18176;49.502;11.754;2023-07-31T21:42:04;17.00;99.90
21184;DHT22;18176;49.502;11.754;2023-07-31T21:46:09;16.70;99.90
21184;DHT22;18176;49.502;11.754;2023-07-31T21:50:17;16.60;99.90
21184;DHT22;18176;49.502;11.754;2023-07-31T21:54:21;16.50;99.90
21184;DHT22;18176;49.502;11.754;2023-07-31T21:58:21;16.40;99.90
21184;DHT22;18176;49.502;11.754;2023-07-31T22:02:22;16.30;99.90
21184;DHT22;18176;49.502;11.754;2023-07-31T22:06:23;16.30;99.90
21184;DHT22;18176;49.502;11.754;2023-07-31T22:10:26;16.20;99.90
21184;DHT22;18176;49.502;11.754;2023-07-31T22:14:27;16.20;99.90
21184;DHT22;18176;49.502;11.754;2023-07-31T22:18:27;16.10;99.90
21184;DHT22;18176;49.502;11.754;2023-07-31T22:22:28;16.10;99.90
21184;DHT22;18176;49.502;11.754;2023-07-31T22:26:31;16.10;99.90
21184;DHT22;18176;49.502;11.754;2023-07-31T22:30:31;16.20;99.90
21184;DHT22;18176;49.502;11.754;2023-07-31T22:34:32;16.20;99.90
21184;DHT22;18176;49.502;11.754;2023-07-31T22:38:33;16.20;99.90
21184;DHT22;18176;49.502;11.754;2023-07-31T22:42:37;16.20;99.90
21184;DHT22;18176;49.502;11.754;2023-07-31T22:46:39;16.20;99.90
21184;DHT22;18176;49.502;11.754;2023-07-31T22:50:40;16.20;99.90
21184;DHT22;18176;49.502;11.754;2023-07-31T22:54:41;16.30;99.90
21184;DHT22;18176;49.502;11.754;2023-07-31T22:58:44;16.30;99.90
21184;DHT22;18176;49.502;11.754;2023-07-31T23:02:45;16.20;99.90
21184;DHT22;18176;49.502;11.754;2023-07-31T23:06:46;16.20;99.90
21184;DHT22;18176;49.502;11.754;2023-07-31T23:10:47;16.20;99.90
21184;DHT22;18176;49.502;11.754;2023-07-31T23:14:52;16.20;99.90
21184;DHT22;18176;49.502;11.754;2023-07-31T23:18:53;16.30;99.90
21184;DHT22;18176;49.502;11.754;2023-07-31T23:23:01;16.20;99.90
21184;DHT22;18176;49.502;11.754;2023-07-31T23:27:14;16.30;99.90
21184;DHT22;18176;49.502;11.754;2023-07-31T23:31:36;16.30;99.90
21184;DHT22;18176;49.502;11.754;2023-07-31T23:35:46;16.30;99.90
21184;DHT22;18176;49.502;11.754;2023-07-31T23:39:47;16.10;99.90
21184;DHT22;18176;49.502;11.754;2023-07-31T23:43:47;16.10;99.90
21184;DHT22;18176;49.502;11.754;2023-07-31T23:47:51;16.10;99.90
21184;DHT22;18176;49.502;11.754;2023-07-31T23:51:52;16.10;99.90
21184;DHT22;18176;49.502;11.754;2023-07-31T23:55:53;16.00;99.90
21184;DHT22;18176;49.502;11.754;2023-07-31T23:59:57;16.00;99.90
